Time;durP1;ratioP1;P1;durP2;ratioP2;P2;SDS_P1;SDS_P2;PMS_P1;PMS_P2;Temp;Humidity;BMP_temperature;BMP_pressure;BME280_temperature;BME280_humidity;BME280_pressure;Samples;Min_cycle;Max_cycle;Signal;HPM_P1;HPM_P2
2023/03/11 00:04:06;;;;;;;1.50;1.40;;;6.60;33.30;;;;;;10399979;28;20218;-71
2023/03/11 00:09:11;;;;;;;1.13;1.07;;;6.60;33.80;;;;;;10399770;28;20597;-71
2023/03/11 00:14:14;;;;;;;1.00;1.00;;;6.60;33.40;;;;;;10399807;28;20229;-71
2023/03/11 00:19:17;;;;;;;1.60;0.80;;;6.60;33.20;;;;;;10399222;28;20689;-70
2023/03/11 00:24:22;;;;;;;1.00;1.00;;;6.60;33.00;;;;;;10398545;28;20217;-70
2023/03/11 00:29:25;;;;;;;0.80;0.80;;;6.60;33.00;;;;;;10400087;28;20233;-70
2023/03/11 00:34:28;;;;;;;1.23;1.10;;;6.60;32.40;;;;;;10400238;28;20819;-70
2023/03/11 00:39:33;;;;;;;0.80;0.80;;;6.60;32.00;;;;;;10399482;28;20721;-70
2023/03/11 00:44:36;;;;;;;1.10;1.00;;;6.60;32.30;;;;;;10399929;28;20225;-70
2023/03/11 00:49:40;;;;;;;0.90;0.90;;;6.60;32.00;;;;;;10400297;28;20233;-70
2023/03/11 00:54:45;;;;;;;0.80;0.80;;;6.60;32.10;;;;;;10398238;28;20789;-70
2023/03/11 00:59:48;;;;;;;0.90;0.90;;;6.60;32.30;;;;;;10396722;28;20232;-70
2023/03/11 01:04:54;;;;;;;0.80;0.80;;;6.60;32.00;;;;;;10399647;28;20225;-70
2023/03/11 01:09:59;;;;;;;1.10;0.90;;;6.60;32.00;;;;;;10399364;28;20774;-70
2023/03/11 01:15:02;;;;;;;0.83;0.83;;;6.60;32.00;;;;;;10399698;28;20283;-71
2023/03/11 01:20:07;;;;;;;0.90;0.90;;;6.60;32.30;;;;;;10397149;28;20222;-70
2023/03/11 01:25:14;;;;;;;1.10;1.10;;;6.60;32.20;;;;;;10401229;28;20218;-70
2023/03/11 01:30:19;;;;;;;0.90;0.90;;;6.60;32.30;;;;;;10399681;28;20237;-70
2023/03/11 01:35:24;;;;;;;1.10;1.00;;;6.60;32.70;;;;;;10398743;28;20347;-70
2023/03/11 01:40:34;;;;;;;1.00;1.00;;;6.70;32.30;;;;;;10399912;28;20264;-70
2023/03/11 01:45:46;;;;;;;0.90;0.90;;;6.70;32.40;;;;;;10398194;28;20304;-70
2023/03/11 01:50:51;;;;;;;1.23;1.20;;;6.70;32.40;;;;;;10397659;28;20230;-70
2023/03/11 01:55:56;;;;;;;1.20;1.10;;;6.70;32.70;;;;;;10398238;28;20713;-70
2023/03/11 02:01:01;;;;;;;1.10;1.10;;;6.70;32.50;;;;;;10394702;28;20579;-70
2023/03/11 02:06:07;;;;;;;1.00;0.90;;;6.80;32.50;;;;;;10398066;28;20712;-71
2023/03/11 02:11:15;;;;;;;1.00;1.00;;;6.70;32.60;;;;;;10399526;28;20287;-70
2023/03/11 02:16:18;;;;;;;1.10;1.00;;;6.70;32.60;;;;;;10402238;28;20693;-70
2023/03/11 02:21:26;;;;;;;1.00;1.00;;;6.70;32.80;;;;;;10403542;28;20241;-71
2023/03/11 02:26:37;;;;;;;1.10;1.10;;;6.80;32.80;;;;;;10403972;28;20228;-70
2023/03/11 02:31:43;;;;;;;1.00;1.00;;;6.80;32.80;;;;;;10406360;28;20233;-70
2023/03/11 02:36:46;;;;;;;1.33;1.17;;;6.70;32.80;;;;;;10404606;28;20241;-69
2023/03/11 02:41:49;;;;;;;1.33;1.33;;;6.70;32.80;;;;;;10406100;28;20723;-69
2023/03/11 02:46:54;;;;;;;1.30;1.20;;;6.70;32.90;;;;;;10403371;28;20214;-69
2023/03/11 02:51:57;;;;;;;1.40;1.30;;;6.60;32.80;;;;;;10402892;28;20232;-69
2023/03/11 02:57:00;;;;;;;1.00;1.00;;;6.60;32.90;;;;;;10403655;28;20232;-69
2023/03/11 03:02:05;;;;;;;1.30;1.20;;;6.60;32.70;;;;;;10402648;28;20229;-70
2023/03/11 03:07:09;;;;;;;1.03;1.03;;;6.60;32.70;;;;;;10401821;28;20219;-70
2023/03/11 03:12:12;;;;;;;1.00;1.00;;;6.50;32.70;;;;;;10400556;28;20578;-70
2023/03/11 03:17:17;;;;;;;1.30;1.20;;;6.50;32.50;;;;;;10403136;28;20229;-70
2023/03/11 03:22:20;;;;;;;1.13;1.13;;;6.40;32.10;;;;;;10402947;28;20230;-70
2023/03/11 03:27:23;;;;;;;1.10;1.10;;;6.40;32.20;;;;;;10401495;28;20225;-70
2023/03/11 03:32:27;;;;;;;1.00;1.00;;;6.30;32.40;;;;;;10402076;28;20599;-70
2023/03/11 03:37:34;;;;;;;1.10;1.00;;;6.20;32.60;;;;;;10400292;28;20734;-70
2023/03/11 03:42:38;;;;;;;1.43;1.07;;;6.20;33.30;;;;;;10402651;28;20234;-70
2023/03/11 03:47:42;;;;;;;1.00;1.00;;;6.30;32.70;;;;;;10399431;28;20229;-70
2023/03/11 03:52:45;;;;;;;1.10;1.00;;;6.20;33.20;;;;;;10402485;28;20260;-70
2023/03/11 03:57:49;;;;;;;1.00;1.00;;;6.10;32.00;;;;;;10401859;28;20234;-70
2023/03/11 04:02:53;;;;;;;0.80;0.80;;;6.10;32.20;;;;;;10400602;28;20237;-74
2023/03/11 04:07:56;;;;;;;1.40;0.80;;;6.00;31.20;;;;;;10395824;28;20229;-72
2023/03/11 04:12:59;;;;;;;0.80;0.80;;;5.90;31.30;;;;;;10395335;28;20535;-72
2023/03/11 04:18:04;;;;;;;0.60;0.60;;;5.80;31.10;;;;;;10401497;28;20577;-72
2023/03/11 04:23:07;;;;;;;0.87;0.70;;;5.70;30.80;;;;;;10400153;28;20230;-72
2023/03/11 04:28:10;;;;;;;0.67;0.67;;;5.60;30.70;;;;;;10399996;28;20233;-72
2023/03/11 04:33:15;;;;;;;0.60;0.60;;;5.50;30.30;;;;;;10394142;28;20229;-73
2023/03/11 04:38:18;;;;;;;1.00;0.77;;;5.40;30.70;;;;;;10400033;28;20232;-73
2023/03/11 04:43:21;;;;;;;0.60;0.60;;;5.40;30.60;;;;;;10395191;28;22881;-73
2023/03/11 04:48:26;;;;;;;1.17;0.80;;;5.30;30.50;;;;;;10397321;28;20237;-73
2023/03/11 04:53:29;;;;;;;0.63;0.63;;;5.30;30.80;;;;;;10398428;28;20230;-73
2023/03/11 04:58:32;;;;;;;1.20;0.90;;;5.20;30.80;;;;;;10400710;28;20229;-73
2023/03/11 05:03:37;;;;;;;2.17;0.90;;;5.10;30.80;;;;;;10400457;28;20234;-73
2023/03/11 05:08:40;;;;;;;0.70;0.70;;;4.90;30.70;;;;;;10396392;28;20598;-73
2023/03/11 05:13:43;;;;;;;0.80;0.80;;;4.80;31.20;;;;;;10400738;28;20229;-73
2023/03/11 05:18:48;;;;;;;1.37;0.83;;;4.70;31.10;;;;;;10400989;28;20657;-73
2023/03/11 05:23:51;;;;;;;1.90;1.00;;;4.60;31.40;;;;;;10401829;28;20775;-73
2023/03/11 05:28:54;;;;;;;0.80;0.77;;;4.60;31.60;;;;;;10398493;28;20232;-73
2023/03/11 05:33:59;;;;;;;1.00;0.73;;;4.50;31.60;;;;;;10403676;28;20232;-73
2023/03/11 05:39:02;;;;;;;0.80;0.73;;;4.50;31.60;;;;;;10404016;28;20237;-73
2023/03/11 05:44:05;;;;;;;0.90;0.83;;;4.60;32.00;;;;;;10406283;28;20598;-73
2023/03/11 05:49:10;;;;;;;1.30;1.10;;;4.50;31.80;;;;;;10408493;28;20627;-74
2023/03/11 05:54:14;;;;;;;1.37;1.13;;;4.50;31.90;;;;;;10404603;28;20222;-74
2023/03/11 05:59:18;;;;;;;0.97;0.90;;;4.50;31.80;;;;;;10409687;28;20220;-73
2023/03/11 06:04:22;;;;;;;1.10;1.00;;;4.60;31.70;;;;;;10402940;28;20222;-73
2023/03/11 06:09:26;;;;;;;1.17;1.00;;;4.50;31.70;;;;;;10403414;28;20237;-73
2023/03/11 06:14:30;;;;;;;2.87;1.03;;;4.50;31.80;;;;;;10408109;28;20630;-73
2023/03/11 06:19:35;;;;;;;1.67;1.10;;;4.50;31.90;;;;;;10403017;28;20226;-73
2023/03/11 06:24:38;;;;;;;1.10;0.80;;;4.50;31.90;;;;;;10407173;28;20222;-73
2023/03/11 06:29:42;;;;;;;3.27;0.90;;;4.40;32.10;;;;;;10409864;28;20598;-74
2023/03/11 06:34:50;;;;;;;1.60;0.90;;;4.40;32.00;;;;;;10404729;28;20221;-73
2023/03/11 06:39:54;;;;;;;1.27;0.77;;;4.40;32.00;;;;;;10411110;28;20640;-73
2023/03/11 06:44:57;;;;;;;2.23;0.97;;;4.40;32.20;;;;;;10404794;28;20313;-73
2023/03/11 06:50:05;;;;;;;2.30;0.90;;;4.40;32.20;;;;;;10403327;28;20222;-73
2023/03/11 06:55:09;;;;;;;0.93;0.90;;;4.40;32.30;;;;;;10402115;28;20279;-74
2023/03/11 07:00:13;;;;;;;1.93;0.93;;;4.50;32.30;;;;;;10400958;28;20226;-73
2023/03/11 07:05:18;;;;;;;1.80;1.40;;;4.50;32.20;;;;;;10405158;28;20308;-73
2023/03/11 07:10:22;;;;;;;1.67;1.10;;;4.60;32.40;;;;;;10403074;28;20236;-73
2023/03/11 07:15:25;;;;;;;1.10;0.90;;;4.60;32.20;;;;;;10401935;28;20721;-73
2023/03/11 07:20:29;;;;;;;1.87;1.03;;;4.70;32.20;;;;;;10400881;28;20233;-73
2023/03/11 07:25:32;;;;;;;1.73;1.00;;;4.70;32.20;;;;;;10404035;28;20230;-74
2023/03/11 07:30:38;;;;;;;1.97;0.93;;;4.70;32.30;;;;;;10393952;28;20230;-73
2023/03/11 07:35:43;;;;;;;1.83;0.80;;;4.80;32.30;;;;;;10403044;28;20226;-73
2023/03/11 07:40:46;;;;;;;1.13;0.80;;;4.80;32.10;;;;;;10401677;28;20231;-73
2023/03/11 07:45:50;;;;;;;1.50;0.87;;;4.80;32.20;;;;;;10400398;28;20225;-73
2023/03/11 07:51:02;;;;;;;1.90;0.93;;;4.90;32.30;;;;;;10399279;28;20308;-73
2023/03/11 07:56:06;;;;;;;1.33;0.90;;;4.90;32.00;;;;;;10400331;28;20218;-74
2023/03/11 08:01:14;;;;;;;1.60;0.80;;;4.90;32.20;;;;;;10397251;28;20264;-73
2023/03/11 08:06:20;;;;;;;1.83;1.10;;;4.90;32.30;;;;;;10401106;28;20693;-75
2023/03/11 08:11:24;;;;;;;2.83;1.10;;;5.00;32.20;;;;;;10398418;28;20225;-73
2023/03/11 08:16:28;;;;;;;2.60;2.10;;;5.00;32.00;;;;;;10399463;28;20226;-72
2023/03/11 08:21:33;;;;;;;1.73;1.13;;;5.00;32.40;;;;;;10401096;28;20225;-72
2023/03/11 08:26:36;;;;;;;1.13;1.03;;;5.00;32.30;;;;;;10398062;28;20283;-72
2023/03/11 08:31:39;;;;;;;1.67;1.20;;;5.00;32.20;;;;;;10399027;28;20245;-72
2023/03/11 08:36:44;;;;;;;1.20;1.10;;;5.10;32.50;;;;;;10397599;28;20699;-72
2023/03/11 08:41:47;;;;;;;1.50;1.40;;;5.30;32.50;;;;;;10398812;28;20620;-73
2023/03/11 08:46:50;;;;;;;1.80;1.30;;;5.40;32.60;;;;;;10396370;28;20804;-72
2023/03/11 08:51:55;;;;;;;2.83;2.03;;;5.60;32.80;;;;;;10399730;28;21034;-69
2023/03/11 08:57:01;;;;;;;2.00;1.80;;;5.70;32.60;;;;;;10393653;28;20226;-73
2023/03/11 09:02:05;;;;;;;1.20;1.20;;;5.90;32.60;;;;;;10397326;28;20241;-72
2023/03/11 09:07:11;;;;;;;1.60;1.00;;;6.00;32.00;;;;;;10394650;28;20470;-72
2023/03/11 09:12:14;;;;;;;1.93;1.20;;;6.00;31.40;;;;;;10396575;28;20312;-72
2023/03/11 09:17:18;;;;;;;1.53;1.30;;;6.00;31.60;;;;;;10398340;28;20233;-72
2023/03/11 09:22:22;;;;;;;2.17;1.10;;;6.00;31.60;;;;;;10395493;28;20578;-73
2023/03/11 09:27:25;;;;;;;2.27;1.20;;;5.90;31.50;;;;;;10395492;28;20226;-71
2023/03/11 09:32:28;;;;;;;2.20;1.20;;;5.90;31.50;;;;;;10396997;28;20230;-72
2023/03/11 09:37:33;;;;;;;3.00;1.27;;;5.90;31.50;;;;;;10394615;28;20229;-72
2023/03/11 09:42:43;;;;;;;3.37;1.27;;;5.80;31.40;;;;;;10393839;28;20234;-72
2023/03/11 09:48:01;;;;;;;1.40;1.30;;;5.80;31.40;;;;;;10393829;28;20225;-73
2023/03/11 09:53:18;;;;;;;1.60;1.30;;;5.80;31.70;;;;;;10386140;28;20226;-71
2023/03/11 09:58:37;;;;;;;1.70;1.60;;;5.90;31.50;;;;;;10393495;28;20304;-72
2023/03/11 10:03:40;;;;;;;3.30;1.30;;;6.10;31.90;;;;;;10397209;28;20225;-69
2023/03/11 10:08:52;;;;;;;3.10;1.40;;;6.20;31.70;;;;;;10392700;28;20697;-70
2023/03/11 10:14:04;;;;;;;1.43;1.20;;;6.40;31.00;;;;;;10396232;28;20233;-69
2023/03/11 10:19:17;;;;;;;1.30;1.10;;;6.40;30.90;;;;;;10392190;28;20221;-70
2023/03/11 10:24:40;;;;;;;2.20;1.17;;;6.50;30.60;;;;;;10391572;28;20570;-70
2023/03/11 10:29:54;;;;;;;2.40;1.27;;;6.60;30.00;;;;;;10396441;28;20236;-70
2023/03/11 10:35:04;;;;;;;3.17;1.30;;;6.60;31.30;;;;;;10400537;28;20629;-69
2023/03/11 10:40:21;;;;;;;1.97;1.40;;;6.70;30.50;;;;;;10403807;28;20221;-69
2023/03/11 10:45:27;;;;;;;1.33;1.20;;;6.70;30.60;;;;;;10393559;28;20280;-69
2023/03/11 10:50:35;;;;;;;1.10;1.10;;;6.90;30.80;;;;;;10397895;28;20234;-69
2023/03/11 10:55:46;;;;;;;2.63;1.30;;;6.90;30.00;;;;;;10403582;28;20245;-69
2023/03/11 11:01:01;;;;;;;1.70;1.23;;;6.90;30.00;;;;;;10402674;28;20256;-70
2023/03/11 11:06:06;;;;;;;1.00;1.00;;;6.90;29.30;;;;;;10397365;28;20226;-71
2023/03/11 11:11:21;;;;;;;2.63;1.10;;;6.90;30.30;;;;;;10398961;28;20241;-73
2023/03/11 11:16:25;;;;;;;1.83;1.00;;;6.90;31.30;;;;;;10397319;28;20221;-69
2023/03/11 11:21:32;;;;;;;1.80;1.10;;;7.10;30.80;;;;;;10397743;28;20226;-69
2023/03/11 11:26:36;;;;;;;2.87;1.10;;;7.10;29.80;;;;;;10402841;28;20230;-70
2023/03/11 11:31:41;;;;;;;1.17;1.10;;;7.00;29.90;;;;;;10400230;28;20237;-70
2023/03/11 11:36:44;;;;;;;2.23;1.30;;;7.00;29.70;;;;;;10397487;28;20705;-69
2023/03/11 11:41:50;;;;;;;1.10;1.10;;;6.90;29.70;;;;;;10401287;28;20698;-69
2023/03/11 11:46:57;;;;;;;1.33;0.90;;;6.90;30.00;;;;;;10399918;28;20727;-69
2023/03/11 11:52:06;;;;;;;1.87;1.13;;;7.00;30.00;;;;;;10397821;28;20237;-69
2023/03/11 11:57:14;;;;;;;1.00;1.00;;;7.10;30.20;;;;;;10399007;28;20716;-70
2023/03/11 12:02:30;;;;;;;2.10;1.03;;;7.20;29.90;;;;;;10399326;28;20222;-69
2023/03/11 12:07:47;;;;;;;1.70;1.30;;;7.40;29.30;;;;;;10398252;28;20229;-69
2023/03/11 12:13:16;;;;;;;1.37;1.10;;;7.60;29.00;;;;;;10398574;28;20229;-69
2023/03/11 12:18:24;;;;;;;1.10;1.10;;;7.70;28.70;;;;;;10396082;28;20701;-69
2023/03/11 12:23:44;;;;;;;1.00;1.00;;;7.70;28.70;;;;;;10401358;28;20233;-69
2023/03/11 12:28:56;;;;;;;1.67;1.07;;;7.60;28.10;;;;;;10399138;28;20229;-69
2023/03/11 12:34:03;;;;;;;1.77;1.40;;;7.50;28.30;;;;;;10394063;28;20229;-69
2023/03/11 12:39:18;;;;;;;2.17;1.27;;;7.50;28.80;;;;;;10397199;28;20226;-70
2023/03/11 12:44:27;;;;;;;1.33;1.23;;;7.40;29.40;;;;;;10390770;28;20769;-71
2023/03/11 12:49:32;;;;;;;1.37;1.27;;;7.40;29.40;;;;;;10399107;28;20234;-70
2023/03/11 12:54:38;;;;;;;1.90;1.47;;;7.50;29.80;;;;;;10382925;28;20221;-70
2023/03/11 13:00:16;;;;;;;1.97;1.37;;;7.50;29.50;;;;;;10395633;28;20240;-70
2023/03/11 13:05:25;;;;;;;1.50;1.40;;;7.60;28.00;;;;;;10387944;28;20217;-70
2023/03/11 13:10:38;;;;;;;1.37;1.10;;;7.50;29.20;;;;;;10402684;28;20233;-70
2023/03/11 13:15:43;;;;;;;1.30;1.20;;;7.50;29.00;;;;;;10396798;28;20284;-72
2023/03/11 13:20:54;;;;;;;1.20;1.10;;;7.60;29.40;;;;;;10396386;28;20244;-71
2023/03/11 13:26:30;;;;;;;2.00;1.20;;;7.60;28.70;;;;;;10394057;28;20223;-72
2023/03/11 13:31:48;;;;;;;3.13;1.30;;;7.60;27.50;;;;;;10393585;28;20233;-72
2023/03/11 13:37:04;;;;;;;1.20;1.10;;;7.60;28.10;;;;;;10386583;28;20221;-72
2023/03/11 13:42:17;;;;;;;1.80;1.00;;;7.60;28.60;;;;;;10386322;28;20217;-72
2023/03/11 13:47:24;;;;;;;1.83;1.13;;;7.50;27.50;;;;;;10382723;28;20783;-72
2023/03/11 13:52:32;;;;;;;1.30;1.20;;;7.60;28.50;;;;;;10382373;28;20229;-72
2023/03/11 13:57:37;;;;;;;1.93;1.30;;;7.60;28.60;;;;;;10385794;28;20245;-72
2023/03/11 14:02:49;;;;;;;2.03;1.40;;;7.80;28.60;;;;;;10382533;28;20234;-71
2023/03/11 14:07:54;;;;;;;1.50;1.40;;;7.80;27.70;;;;;;10394571;28;20598;-72
2023/03/11 14:13:17;;;;;;;1.40;1.30;;;8.00;28.60;;;;;;10397140;28;20234;-72
2023/03/11 14:18:31;;;;;;;1.40;1.30;;;8.00;27.30;;;;;;10401290;28;20232;-72
2023/03/11 14:23:39;;;;;;;2.00;1.00;;;8.00;26.50;;;;;;10401453;28;20230;-72
2023/03/11 14:28:45;;;;;;;2.27;1.23;;;8.00;27.80;;;;;;10399109;28;20249;-72
2023/03/11 14:33:57;;;;;;;1.77;1.20;;;7.90;27.80;;;;;;10396435;28;20367;-73
2023/03/11 14:39:00;;;;;;;3.03;1.50;;;7.90;27.70;;;;;;10390633;28;20350;-72
2023/03/11 14:44:04;;;;;;;1.57;1.47;;;7.80;27.70;;;;;;10398807;28;20226;-72
2023/03/11 14:49:15;;;;;;;2.20;1.73;;;7.80;27.70;;;;;;10395580;28;20250;-69
2023/03/11 14:54:23;;;;;;;2.67;1.40;;;7.80;27.20;;;;;;10397058;28;20214;-72
2023/03/11 14:59:31;;;;;;;3.00;1.67;;;7.80;27.70;;;;;;10398809;28;20234;-72
2023/03/11 15:04:43;;;;;;;1.97;1.50;;;7.80;27.70;;;;;;10399872;28;20313;-72
2023/03/11 15:09:46;;;;;;;1.40;1.30;;;7.80;27.70;;;;;;10397670;28;20785;-72
2023/03/11 15:14:51;;;;;;;1.80;1.50;;;7.70;28.20;;;;;;10399276;28;20225;-72
2023/03/11 15:19:56;;;;;;;1.47;1.37;;;7.80;27.70;;;;;;10396137;28;20232;-72
2023/03/11 15:25:01;;;;;;;1.53;1.37;;;7.70;27.60;;;;;;10396476;28;20250;-72
2023/03/11 15:30:17;;;;;;;1.40;1.23;;;7.70;26.70;;;;;;10392485;28;20397;-75
2023/03/11 15:35:23;;;;;;;1.83;1.40;;;7.70;27.20;;;;;;10399870;28;20232;-75
2023/03/11 15:40:28;;;;;;;1.80;1.20;;;7.60;26.40;;;;;;10396605;28;20230;-76
2023/03/11 15:45:47;;;;;;;1.53;1.37;;;7.60;27.10;;;;;;10398461;28;20229;-74
2023/03/11 15:50:54;;;;;;;2.53;1.23;;;7.60;27.50;;;;;;10391540;28;20234;-75
2023/03/11 15:56:00;;;;;;;1.40;1.30;;;7.50;27.00;;;;;;10395503;28;20279;-75
2023/03/11 16:01:09;;;;;;;1.30;1.13;;;7.60;27.50;;;;;;10396823;28;20717;-71
2023/03/11 16:06:14;;;;;;;1.30;1.13;;;7.60;27.50;;;;;;10395790;28;20771;-72
2023/03/11 16:11:18;;;;;;;3.10;1.27;;;7.60;27.50;;;;;;10398303;28;20784;-71
2023/03/11 16:16:21;;;;;;;2.13;1.27;;;7.70;27.60;;;;;;10398312;28;20579;-71
2023/03/11 16:21:33;;;;;;;2.73;1.23;;;7.80;27.70;;;;;;10397096;28;20697;-70
2023/03/11 16:26:36;;;;;;;1.40;1.30;;;7.80;27.70;;;;;;10396322;28;20229;-71
2023/03/11 16:31:39;;;;;;;1.57;1.47;;;7.90;27.70;;;;;;10394100;28;20234;-71
2023/03/11 16:36:43;;;;;;;1.40;1.30;;;7.90;27.70;;;;;;10397628;28;20233;-71
2023/03/11 16:41:47;;;;;;;1.33;1.23;;;8.00;27.80;;;;;;10397253;28;20237;-71
2023/03/11 16:46:50;;;;;;;1.37;1.10;;;8.00;27.80;;;;;;10395402;28;20634;-71
2023/03/11 16:51:54;;;;;;;1.43;1.10;;;8.10;28.00;;;;;;10396015;28;20226;-71
2023/03/11 16:56:57;;;;;;;2.13;1.20;;;8.10;27.90;;;;;;10394635;28;20313;-70
2023/03/11 17:02:01;;;;;;;2.53;1.10;;;8.10;27.90;;;;;;10398380;28;20222;-71
2023/03/11 17:07:07;;;;;;;2.37;1.20;;;8.10;27.90;;;;;;10389401;28;20336;-70
2023/03/11 17:12:14;;;;;;;2.10;1.40;;;8.10;27.90;;;;;;10392356;28;20225;-70
2023/03/11 17:17:17;;;;;;;2.10;1.20;;;8.10;27.90;;;;;;10394974;28;20218;-70
2023/03/11 17:22:22;;;;;;;1.53;1.20;;;8.00;27.80;;;;;;10394023;28;20647;-70
2023/03/11 17:27:30;;;;;;;1.53;1.10;;;8.00;27.80;;;;;;10392110;28;20225;-70
2023/03/11 17:32:34;;;;;;;1.20;1.10;;;7.90;27.70;;;;;;10389494;28;20309;-70
2023/03/11 17:37:38;;;;;;;3.43;1.30;;;7.90;27.70;;;;;;10392318;28;20221;-70
2023/03/11 17:42:42;;;;;;;1.27;1.10;;;7.90;27.70;;;;;;10406217;28;20737;-70
2023/03/11 17:47:45;;;;;;;1.43;1.20;;;7.90;27.80;;;;;;10399582;28;20233;-70
2023/03/11 17:52:49;;;;;;;2.37;1.20;;;7.90;28.00;;;;;;10403472;28;20736;-70
2023/03/11 17:57:53;;;;;;;2.37;1.30;;;7.90;28.00;;;;;;10411208;28;20228;-70
2023/03/11 18:02:56;;;;;;;2.00;1.20;;;7.90;28.20;;;;;;10407452;28;20229;-70
2023/03/11 18:08:00;;;;;;;0.90;0.90;;;7.90;28.20;;;;;;10401663;28;20234;-69
2023/03/11 18:13:03;;;;;;;1.97;1.30;;;7.90;27.90;;;;;;10409858;28;20731;-70
2023/03/11 18:18:06;;;;;;;1.10;1.00;;;7.90;28.00;;;;;;10405789;28;20218;-70
2023/03/11 18:23:11;;;;;;;1.33;1.10;;;7.90;27.80;;;;;;10405290;28;20637;-70
2023/03/11 18:28:14;;;;;;;1.33;1.20;;;7.90;27.70;;;;;;10399755;28;20236;-69
2023/03/11 18:33:17;;;;;;;1.43;1.20;;;7.80;28.00;;;;;;10405407;28;20232;-69
2023/03/11 18:38:22;;;;;;;1.20;1.10;;;7.80;28.10;;;;;;10399889;28;20222;-70
2023/03/11 18:43:25;;;;;;;1.30;1.20;;;7.70;27.90;;;;;;10400375;28;20241;-70
2023/03/11 18:48:28;;;;;;;1.57;1.40;;;7.70;28.10;;;;;;10401907;28;20229;-70
2023/03/11 18:53:33;;;;;;;1.67;1.57;;;7.60;28.00;;;;;;10399801;28;20225;-70
2023/03/11 18:58:36;;;;;;;1.87;1.50;;;7.60;28.00;;;;;;10400207;28;20538;-70
2023/03/11 19:03:39;;;;;;;1.70;1.60;;;7.60;28.10;;;;;;10404646;28;20233;-70
2023/03/11 19:08:44;;;;;;;2.40;1.77;;;7.50;28.10;;;;;;10397474;28;20230;-70
2023/03/11 19:13:47;;;;;;;1.80;1.70;;;7.50;28.20;;;;;;10401223;28;20697;-70
2023/03/11 19:18:52;;;;;;;1.90;1.80;;;7.40;28.20;;;;;;10396794;28;20225;-70
2023/03/11 19:23:58;;;;;;;2.20;2.00;;;7.40;28.40;;;;;;10398566;28;20233;-70
2023/03/11 19:29:02;;;;;;;2.53;1.90;;;7.40;28.50;;;;;;10395200;28;20647;-70
2023/03/11 19:34:05;;;;;;;2.70;2.50;;;7.40;28.60;;;;;;10398767;28;20582;-70
2023/03/11 19:39:09;;;;;;;4.00;3.60;;;7.40;28.70;;;;;;10396774;28;20229;-70
2023/03/11 19:44:12;;;;;;;6.10;5.10;;;7.40;28.70;;;;;;10398505;28;20710;-70
2023/03/11 19:49:15;;;;;;;4.13;3.63;;;7.40;28.80;;;;;;10397298;28;20233;-69
2023/03/11 19:54:20;;;;;;;4.57;3.87;;;7.40;28.80;;;;;;10396323;28;20222;-70
2023/03/11 19:59:23;;;;;;;4.80;4.33;;;7.40;28.90;;;;;;10399209;28;20236;-70
2023/03/11 20:04:26;;;;;;;4.20;3.80;;;7.40;28.80;;;;;;10397733;28;20226;-71
2023/03/11 20:09:32;;;;;;;6.00;4.70;;;7.30;28.90;;;;;;10399904;28;20229;-70
2023/03/11 20:14:37;;;;;;;5.47;4.97;;;7.30;29.00;;;;;;10394773;28;21141;-70
2023/03/11 20:19:41;;;;;;;6.70;5.70;;;7.30;29.00;;;;;;10392436;28;20288;-70
2023/03/11 20:24:46;;;;;;;5.73;5.13;;;7.20;28.90;;;;;;10400969;28;20283;-71
2023/03/11 20:29:50;;;;;;;4.67;4.27;;;7.20;28.80;;;;;;10398260;28;20240;-71
2023/03/11 20:34:53;;;;;;;3.63;3.30;;;7.20;28.90;;;;;;10395147;28;20261;-71
2023/03/11 20:39:58;;;;;;;6.07;5.10;;;7.10;28.90;;;;;;10384219;28;20321;-71
2023/03/11 20:45:01;;;;;;;8.70;7.13;;;7.00;28.80;;;;;;10391564;28;20237;-71
2023/03/11 20:50:05;;;;;;;7.37;6.33;;;6.80;28.80;;;;;;10389420;28;20232;-71
2023/03/11 20:55:13;;;;;;;4.63;4.20;;;6.70;29.10;;;;;;10389731;28;20232;-71
2023/03/11 21:00:17;;;;;;;5.27;4.77;;;6.60;29.30;;;;;;10391097;28;20283;-74
2023/03/11 21:05:20;;;;;;;6.37;5.77;;;6.50;29.10;;;;;;10389076;28;20230;-74
2023/03/11 21:10:25;;;;;;;4.67;4.17;;;6.40;29.00;;;;;;10392030;28;20244;-74
2023/03/11 21:15:28;;;;;;;3.60;3.30;;;6.20;29.00;;;;;;10388880;28;20238;-74
2023/03/11 21:20:31;;;;;;;3.53;3.23;;;6.20;29.30;;;;;;10390902;28;20309;-74
2023/03/11 21:25:37;;;;;;;3.70;3.40;;;6.10;29.40;;;;;;10386352;28;20917;-74
2023/03/11 21:30:41;;;;;;;3.90;3.27;;;6.10;29.50;;;;;;10391615;28;20248;-74
2023/03/11 21:35:44;;;;;;;4.73;3.97;;;6.10;29.50;;;;;;10387131;28;20246;-74
2023/03/11 21:40:50;;;;;;;4.20;3.57;;;6.10;29.50;;;;;;10388333;28;20253;-74
2023/03/11 21:45:53;;;;;;;4.43;3.50;;;6.10;29.50;;;;;;10387204;28;20257;-74
2023/03/11 21:50:57;;;;;;;3.97;3.37;;;6.20;29.50;;;;;;10385232;28;20229;-74
2023/03/11 21:56:02;;;;;;;7.20;4.50;;;6.10;29.40;;;;;;10388917;28;20227;-74
2023/03/11 22:01:06;;;;;;;5.77;4.67;;;6.10;29.60;;;;;;10385594;28;20332;-74
2023/03/11 22:06:11;;;;;;;5.17;4.47;;;6.10;29.60;;;;;;10390805;28;20222;-75
2023/03/11 22:11:19;;;;;;;5.87;4.30;;;6.00;29.60;;;;;;10388510;28;20772;-74
2023/03/11 22:16:23;;;;;;;5.50;5.00;;;6.00;29.60;;;;;;10386290;28;20234;-74
2023/03/11 22:21:27;;;;;;;6.07;5.47;;;5.90;29.50;;;;;;10387243;28;20276;-74
2023/03/11 22:26:31;;;;;;;5.87;5.27;;;5.80;29.40;;;;;;10380854;28;20233;-75
2023/03/11 22:31:34;;;;;;;7.07;5.00;;;5.70;29.50;;;;;;10405522;28;20649;-75
2023/03/11 22:36:38;;;;;;;5.73;5.13;;;5.50;29.60;;;;;;10395291;28;20233;-74
2023/03/11 22:41:42;;;;;;;5.90;5.30;;;5.40;29.70;;;;;;10398923;28;20713;-74
2023/03/11 22:46:45;;;;;;;6.53;5.90;;;5.40;29.80;;;;;;10391458;28;20241;-74
2023/03/11 22:51:48;;;;;;;6.20;5.23;;;5.40;29.80;;;;;;10395176;28;20226;-74
2023/03/11 22:56:53;;;;;;;5.60;5.10;;;5.40;29.80;;;;;;10395130;28;20238;-74
2023/03/11 23:01:56;;;;;;;5.93;4.97;;;5.40;29.90;;;;;;10391228;28;20566;-74
2023/03/11 23:06:59;;;;;;;4.50;4.00;;;5.30;29.90;;;;;;10400901;28;20229;-75
2023/03/11 23:12:05;;;;;;;4.00;3.60;;;5.30;29.90;;;;;;10397963;28;20706;-73
2023/03/11 23:17:08;;;;;;;3.83;3.43;;;5.30;30.00;;;;;;10404274;28;20234;-74
2023/03/11 23:22:12;;;;;;;3.30;3.00;;;5.20;29.90;;;;;;10395971;28;20222;-74
2023/03/11 23:27:16;;;;;;;6.20;4.60;;;5.20;29.90;;;;;;10394542;28;20728;-75
2023/03/11 23:32:19;;;;;;;6.77;4.50;;;5.10;30.00;;;;;;10417277;28;20225;-74
2023/03/11 23:37:22;;;;;;;4.77;4.10;;;5.10;29.90;;;;;;10394801;28;20234;-74
2023/03/11 23:42:27;;;;;;;4.03;3.67;;;5.10;30.00;;;;;;10399434;28;20264;-74
2023/03/11 23:47:30;;;;;;;4.00;3.60;;;5.10;30.00;;;;;;10402142;28;20229;-75
2023/03/11 23:52:34;;;;;;;4.40;3.50;;;5.00;29.80;;;;;;10405309;28;20233;-71
2023/03/11 23:57:39;;;;;;;4.17;3.60;;;4.80;29.90;;;;;;10393985;28;20226;-71
